sensor_id;sensor_type;location;lat;lon;timestamp;P1;durP1;ratioP1;P2;durP2;ratioP2
21831;SDS011;11078;49.872;6.188;2022-07-03T00:01:48;1.48;;;0.88;;
21831;SDS011;11078;49.872;6.188;2022-07-03T00:04:14;1.10;;;1.02;;
21831;SDS011;11078;49.872;6.188;2022-07-03T00:06:40;1.77;;;1.13;;
21831;SDS011;11078;49.872;6.188;2022-07-03T00:09:06;0.85;;;0.85;;
21831;SDS011;11078;49.872;6.188;2022-07-03T00:11:32;1.42;;;0.98;;
21831;SDS011;11078;49.872;6.188;2022-07-03T00:13:59;3.20;;;1.02;;
21831;SDS011;11078;49.872;6.188;2022-07-03T00:16:25;0.95;;;0.95;;
21831;SDS011;11078;49.872;6.188;2022-07-03T00:18:51;1.23;;;0.93;;
21831;SDS011;11078;49.872;6.188;2022-07-03T00:21:23;0.95;;;0.95;;
21831;SDS011;11078;49.872;6.188;2022-07-03T00:24:07;2.80;;;1.13;;
21831;SDS011;11078;49.872;6.188;2022-07-03T00:26:36;0.80;;;0.80;;
21831;SDS011;11078;49.872;6.188;2022-07-03T00:29:04;2.13;;;0.90;;
21831;SDS011;11078;49.872;6.188;2022-07-03T00:31:32;1.10;;;1.00;;
21831;SDS011;11078;49.872;6.188;2022-07-03T00:33:59;0.85;;;0.85;;
21831;SDS011;11078;49.872;6.188;2022-07-03T00:36:29;0.93;;;0.90;;
21831;SDS011;11078;49.872;6.188;2022-07-03T00:38:59;1.65;;;1.10;;
21831;SDS011;11078;49.872;6.188;2022-07-03T00:41:26;1.20;;;1.10;;
21831;SDS011;11078;49.872;6.188;2022-07-03T00:43:53;1.90;;;0.98;;
21831;SDS011;11078;49.872;6.188;2022-07-03T00:46:22;0.80;;;0.80;;
21831;SDS011;11078;49.872;6.188;2022-07-03T00:48:50;0.95;;;0.95;;
21831;SDS011;11078;49.872;6.188;2022-07-03T00:51:20;5.40;;;0.95;;
21831;SDS011;11078;49.872;6.188;2022-07-03T00:53:49;1.00;;;1.00;;
21831;SDS011;11078;49.872;6.188;2022-07-03T00:56:19;0.90;;;0.90;;
21831;SDS011;11078;49.872;6.188;2022-07-03T00:58:54;1.27;;;0.90;;
21831;SDS011;11078;49.872;6.188;2022-07-03T01:01:24;1.27;;;0.95;;
21831;SDS011;11078;49.872;6.188;2022-07-03T01:06:47;2.97;;;1.10;;
21831;SDS011;11078;49.872;6.188;2022-07-03T01:09:17;0.70;;;0.70;;
21831;SDS011;11078;49.872;6.188;2022-07-03T01:11:58;2.35;;;1.33;;
21831;SDS011;11078;49.872;6.188;2022-07-03T01:14:32;0.95;;;0.95;;
21831;SDS011;11078;49.872;6.188;2022-07-03T01:17:20;1.05;;;0.98;;
21831;SDS011;11078;49.872;6.188;2022-07-03T01:19:54;0.93;;;0.93;;
21831;SDS011;11078;49.872;6.188;2022-07-03T01:22:29;1.52;;;1.00;;
21831;SDS011;11078;49.872;6.188;2022-07-03T01:30:35;1.35;;;1.20;;
21831;SDS011;11078;49.872;6.188;2022-07-03T01:33:09;0.90;;;0.90;;
21831;SDS011;11078;49.872;6.188;2022-07-03T01:35:41;0.90;;;0.90;;
21831;SDS011;11078;49.872;6.188;2022-07-03T01:38:13;0.90;;;0.90;;
21831;SDS011;11078;49.872;6.188;2022-07-03T01:40:40;1.58;;;1.10;;
21831;SDS011;11078;49.872;6.188;2022-07-03T01:43:09;1.63;;;1.20;;
21831;SDS011;11078;49.872;6.188;2022-07-03T01:45:38;1.30;;;1.20;;
21831;SDS011;11078;49.872;6.188;2022-07-03T01:48:13;1.67;;;1.10;;
21831;SDS011;11078;49.872;6.188;2022-07-03T01:50:40;1.08;;;1.00;;
21831;SDS011;11078;49.872;6.188;2022-07-03T01:53:08;2.47;;;1.08;;
21831;SDS011;11078;49.872;6.188;2022-07-03T01:55:37;1.05;;;0.95;;
21831;SDS011;11078;49.872;6.188;2022-07-03T01:58:05;1.10;;;1.02;;
21831;SDS011;11078;49.872;6.188;2022-07-03T02:00:31;1.02;;;1.02;;
21831;SDS011;11078;49.872;6.188;2022-07-03T02:03:24;1.20;;;1.10;;
21831;SDS011;11078;49.872;6.188;2022-07-03T02:05:56;1.92;;;1.00;;
21831;SDS011;11078;49.872;6.188;2022-07-03T02:08:34;1.20;;;1.20;;
21831;SDS011;11078;49.872;6.188;2022-07-03T02:11:14;0.90;;;0.90;;
21831;SDS011;11078;49.872;6.188;2022-07-03T02:13:50;1.17;;;1.08;;
21831;SDS011;11078;49.872;6.188;2022-07-03T02:16:26;0.90;;;0.90;;
21831;SDS011;11078;49.872;6.188;2022-07-03T02:18:56;0.90;;;0.90;;
21831;SDS011;11078;49.872;6.188;2022-07-03T02:21:28;0.98;;;0.98;;
21831;SDS011;11078;49.872;6.188;2022-07-03T02:26:53;1.17;;;1.08;;
21831;SDS011;11078;49.872;6.188;2022-07-03T02:29:36;1.20;;;1.10;;
21831;SDS011;11078;49.872;6.188;2022-07-03T02:32:12;1.17;;;1.10;;
21831;SDS011;11078;49.872;6.188;2022-07-03T02:34:44;3.50;;;1.02;;
21831;SDS011;11078;49.872;6.188;2022-07-03T02:37:15;1.13;;;1.05;;
21831;SDS011;11078;49.872;6.188;2022-07-03T02:39:45;1.00;;;1.00;;
21831;SDS011;11078;49.872;6.188;2022-07-03T02:45:04;1.15;;;1.15;;
21831;SDS011;11078;49.872;6.188;2022-07-03T02:47:35;1.00;;;0.90;;
21831;SDS011;11078;49.872;6.188;2022-07-03T02:50:19;0.90;;;0.90;;
21831;SDS011;11078;49.872;6.188;2022-07-03T02:53:08;1.80;;;1.05;;
21831;SDS011;11078;49.872;6.188;2022-07-03T02:55:41;0.90;;;0.90;;
21831;SDS011;11078;49.872;6.188;2022-07-03T03:01:06;0.90;;;0.90;;
21831;SDS011;11078;49.872;6.188;2022-07-03T03:03:34;1.23;;;1.13;;
21831;SDS011;11078;49.872;6.188;2022-07-03T03:06:07;2.92;;;1.10;;
21831;SDS011;11078;49.872;6.188;2022-07-03T03:08:42;1.10;;;1.00;;
21831;SDS011;11078;49.872;6.188;2022-07-03T03:11:23;1.10;;;1.00;;
21831;SDS011;11078;49.872;6.188;2022-07-03T03:13:55;2.20;;;1.38;;
21831;SDS011;11078;49.872;6.188;2022-07-03T03:16:22;1.10;;;1.05;;
21831;SDS011;11078;49.872;6.188;2022-07-03T03:18:48;1.25;;;1.15;;
21831;SDS011;11078;49.872;6.188;2022-07-03T03:21:16;1.10;;;1.02;;
21831;SDS011;11078;49.872;6.188;2022-07-03T03:23:44;1.35;;;1.02;;
21831;SDS011;11078;49.872;6.188;2022-07-03T03:26:18;1.75;;;1.20;;
21831;SDS011;11078;49.872;6.188;2022-07-03T03:28:47;1.17;;;1.13;;
21831;SDS011;11078;49.872;6.188;2022-07-03T03:31:14;1.52;;;1.13;;
21831;SDS011;11078;49.872;6.188;2022-07-03T03:33:42;1.63;;;1.13;;
21831;SDS011;11078;49.872;6.188;2022-07-03T03:36:09;1.30;;;1.20;;
21831;SDS011;11078;49.872;6.188;2022-07-03T03:38:37;1.40;;;1.30;;
21831;SDS011;11078;49.872;6.188;2022-07-03T03:41:04;1.25;;;1.00;;
21831;SDS011;11078;49.872;6.188;2022-07-03T03:43:30;1.10;;;1.02;;
21831;SDS011;11078;49.872;6.188;2022-07-03T03:45:57;1.38;;;1.10;;
21831;SDS011;11078;49.872;6.188;2022-07-03T03:48:24;1.00;;;0.90;;
21831;SDS011;11078;49.872;6.188;2022-07-03T03:50:51;2.17;;;1.10;;
21831;SDS011;11078;49.872;6.188;2022-07-03T03:53:18;1.30;;;1.20;;
21831;SDS011;11078;49.872;6.188;2022-07-03T03:58:28;1.40;;;1.30;;
21831;SDS011;11078;49.872;6.188;2022-07-03T04:00:55;1.45;;;1.05;;
21831;SDS011;11078;49.872;6.188;2022-07-03T04:03:22;2.38;;;1.25;;
21831;SDS011;11078;49.872;6.188;2022-07-03T04:05:49;1.40;;;1.20;;
21831;SDS011;11078;49.872;6.188;2022-07-03T04:08:15;1.30;;;1.20;;
21831;SDS011;11078;49.872;6.188;2022-07-03T04:10:40;2.33;;;1.30;;
21831;SDS011;11078;49.872;6.188;2022-07-03T04:13:06;2.42;;;1.35;;
21831;SDS011;11078;49.872;6.188;2022-07-03T04:15:32;1.05;;;1.05;;
21831;SDS011;11078;49.872;6.188;2022-07-03T04:17:58;1.58;;;1.48;;
21831;SDS011;11078;49.872;6.188;2022-07-03T04:20:25;1.88;;;1.40;;
21831;SDS011;11078;49.872;6.188;2022-07-03T04:22:51;1.27;;;1.23;;
21831;SDS011;11078;49.872;6.188;2022-07-03T04:25:17;1.40;;;1.30;;
21831;SDS011;11078;49.872;6.188;2022-07-03T04:27:43;1.55;;;1.25;;
21831;SDS011;11078;49.872;6.188;2022-07-03T04:30:09;1.35;;;1.25;;
21831;SDS011;11078;49.872;6.188;2022-07-03T04:32:36;1.55;;;1.20;;
21831;SDS011;11078;49.872;6.188;2022-07-03T04:35:03;3.70;;;1.30;;
21831;SDS011;11078;49.872;6.188;2022-07-03T04:37:29;1.40;;;1.30;;
21831;SDS011;11078;49.872;6.188;2022-07-03T04:39:55;1.77;;;1.10;;
21831;SDS011;11078;49.872;6.188;2022-07-03T04:42:21;1.23;;;1.10;;
21831;SDS011;11078;49.872;6.188;2022-07-03T04:44:47;1.30;;;1.10;;
21831;SDS011;11078;49.872;6.188;2022-07-03T04:47:13;1.65;;;1.30;;
21831;SDS011;11078;49.872;6.188;2022-07-03T04:49:40;1.48;;;1.20;;
21831;SDS011;11078;49.872;6.188;2022-07-03T04:52:07;2.05;;;1.20;;
21831;SDS011;11078;49.872;6.188;2022-07-03T04:54:34;1.20;;;1.10;;
21831;SDS011;11078;49.872;6.188;2022-07-03T04:57:00;1.75;;;1.40;;
21831;SDS011;11078;49.872;6.188;2022-07-03T04:59:26;1.40;;;1.30;;
21831;SDS011;11078;49.872;6.188;2022-07-03T05:01:52;1.15;;;1.10;;
21831;SDS011;11078;49.872;6.188;2022-07-03T05:04:18;1.30;;;1.20;;
21831;SDS011;11078;49.872;6.188;2022-07-03T05:06:44;1.30;;;1.20;;
21831;SDS011;11078;49.872;6.188;2022-07-03T05:09:10;1.30;;;1.20;;
21831;SDS011;11078;49.872;6.188;2022-07-03T05:11:36;1.65;;;1.08;;
21831;SDS011;11078;49.872;6.188;2022-07-03T05:14:03;1.60;;;1.50;;
21831;SDS011;11078;49.872;6.188;2022-07-03T05:16:29;1.42;;;1.33;;
21831;SDS011;11078;49.872;6.188;2022-07-03T05:18:56;1.40;;;1.30;;
21831;SDS011;11078;49.872;6.188;2022-07-03T05:21:22;1.60;;;1.50;;
21831;SDS011;11078;49.872;6.188;2022-07-03T05:23:48;3.08;;;1.58;;
21831;SDS011;11078;49.872;6.188;2022-07-03T05:26:14;1.60;;;1.45;;
21831;SDS011;11078;49.872;6.188;2022-07-03T05:28:40;2.05;;;1.80;;
21831;SDS011;11078;49.872;6.188;2022-07-03T05:31:06;1.52;;;1.42;;
21831;SDS011;11078;49.872;6.188;2022-07-03T05:33:32;1.98;;;1.63;;
21831;SDS011;11078;49.872;6.188;2022-07-03T05:35:58;1.48;;;1.38;;
21831;SDS011;11078;49.872;6.188;2022-07-03T05:38:24;1.20;;;1.20;;
21831;SDS011;11078;49.872;6.188;2022-07-03T05:41:06;1.77;;;1.40;;
21831;SDS011;11078;49.872;6.188;2022-07-03T05:43:32;1.20;;;1.10;;
21831;SDS011;11078;49.872;6.188;2022-07-03T05:45:57;1.00;;;1.00;;
21831;SDS011;11078;49.872;6.188;2022-07-03T05:48:24;1.40;;;1.13;;
21831;SDS011;11078;49.872;6.188;2022-07-03T05:50:50;1.48;;;1.10;;
21831;SDS011;11078;49.872;6.188;2022-07-03T05:53:16;1.05;;;0.95;;
21831;SDS011;11078;49.872;6.188;2022-07-03T05:55:42;3.05;;;1.10;;
21831;SDS011;11078;49.872;6.188;2022-07-03T05:58:08;1.02;;;0.90;;
21831;SDS011;11078;49.872;6.188;2022-07-03T06:00:34;1.17;;;1.08;;
21831;SDS011;11078;49.872;6.188;2022-07-03T06:03:00;1.05;;;1.05;;
21831;SDS011;11078;49.872;6.188;2022-07-03T06:05:27;1.00;;;1.00;;
21831;SDS011;11078;49.872;6.188;2022-07-03T06:07:54;3.22;;;1.33;;
21831;SDS011;11078;49.872;6.188;2022-07-03T06:10:20;1.20;;;1.10;;
21831;SDS011;11078;49.872;6.188;2022-07-03T06:12:46;1.10;;;1.00;;
21831;SDS011;11078;49.872;6.188;2022-07-03T06:15:12;1.77;;;1.20;;
21831;SDS011;11078;49.872;6.188;2022-07-03T06:17:38;0.95;;;0.90;;
21831;SDS011;11078;49.872;6.188;2022-07-03T06:20:04;1.42;;;0.95;;
21831;SDS011;11078;49.872;6.188;2022-07-03T06:22:31;1.15;;;1.05;;
21831;SDS011;11078;49.872;6.188;2022-07-03T06:24:58;1.23;;;1.13;;
21831;SDS011;11078;49.872;6.188;2022-07-03T06:27:24;1.10;;;1.10;;
21831;SDS011;11078;49.872;6.188;2022-07-03T06:29:50;1.52;;;1.15;;
21831;SDS011;11078;49.872;6.188;2022-07-03T06:32:16;1.27;;;1.20;;
21831;SDS011;11078;49.872;6.188;2022-07-03T06:34:43;1.33;;;0.82;;
21831;SDS011;11078;49.872;6.188;2022-07-03T06:37:09;1.85;;;1.30;;
21831;SDS011;11078;49.872;6.188;2022-07-03T06:39:35;1.10;;;1.10;;
21831;SDS011;11078;49.872;6.188;2022-07-03T06:42:02;1.33;;;1.10;;
21831;SDS011;11078;49.872;6.188;2022-07-03T06:44:29;1.48;;;1.20;;
21831;SDS011;11078;49.872;6.188;2022-07-03T06:46:55;3.13;;;1.10;;
21831;SDS011;11078;49.872;6.188;2022-07-03T06:49:22;1.25;;;1.10;;
21831;SDS011;11078;49.872;6.188;2022-07-03T06:51:49;1.15;;;1.15;;
21831;SDS011;11078;49.872;6.188;2022-07-03T06:54:15;1.20;;;1.10;;
21831;SDS011;11078;49.872;6.188;2022-07-03T06:56:41;1.83;;;1.10;;
21831;SDS011;11078;49.872;6.188;2022-07-03T06:59:07;1.65;;;1.08;;
21831;SDS011;11078;49.872;6.188;2022-07-03T07:01:34;1.60;;;1.40;;
21831;SDS011;11078;49.872;6.188;2022-07-03T07:04:00;2.65;;;1.73;;
21831;SDS011;11078;49.872;6.188;2022-07-03T07:06:27;4.35;;;1.08;;
21831;SDS011;11078;49.872;6.188;2022-07-03T07:08:54;1.45;;;1.27;;
21831;SDS011;11078;49.872;6.188;2022-07-03T07:11:20;3.63;;;1.10;;
21831;SDS011;11078;49.872;6.188;2022-07-03T07:13:46;2.25;;;1.17;;
21831;SDS011;11078;49.872;6.188;2022-07-03T07:16:12;1.20;;;1.10;;
21831;SDS011;11078;49.872;6.188;2022-07-03T07:18:41;4.90;;;1.08;;
21831;SDS011;11078;49.872;6.188;2022-07-03T07:21:08;1.23;;;1.00;;
21831;SDS011;11078;49.872;6.188;2022-07-03T07:23:34;1.77;;;1.02;;
21831;SDS011;11078;49.872;6.188;2022-07-03T07:26:00;0.98;;;0.98;;
21831;SDS011;11078;49.872;6.188;2022-07-03T07:28:26;1.50;;;1.00;;
21831;SDS011;11078;49.872;6.188;2022-07-03T07:30:53;1.10;;;0.93;;
21831;SDS011;11078;49.872;6.188;2022-07-03T07:33:20;1.52;;;0.85;;
21831;SDS011;11078;49.872;6.188;2022-07-03T07:35:47;1.75;;;1.08;;
21831;SDS011;11078;49.872;6.188;2022-07-03T07:38:13;1.30;;;0.93;;
21831;SDS011;11078;49.872;6.188;2022-07-03T07:40:39;1.60;;;0.90;;
21831;SDS011;11078;49.872;6.188;2022-07-03T07:43:05;1.58;;;0.88;;
21831;SDS011;11078;49.872;6.188;2022-07-03T07:45:31;2.35;;;1.00;;
21831;SDS011;11078;49.872;6.188;2022-07-03T07:47:57;1.15;;;1.08;;
21831;SDS011;11078;49.872;6.188;2022-07-03T07:50:23;0.98;;;0.93;;
21831;SDS011;11078;49.872;6.188;2022-07-03T07:52:49;0.90;;;0.80;;
21831;SDS011;11078;49.872;6.188;2022-07-03T07:55:15;0.90;;;0.90;;
21831;SDS011;11078;49.872;6.188;2022-07-03T07:57:41;1.52;;;1.00;;
21831;SDS011;11078;49.872;6.188;2022-07-03T08:00:08;0.88;;;0.85;;
21831;SDS011;11078;49.872;6.188;2022-07-03T08:02:36;2.22;;;0.90;;
21831;SDS011;11078;49.872;6.188;2022-07-03T08:05:18;0.90;;;0.90;;
21831;SDS011;11078;49.872;6.188;2022-07-03T08:07:59;2.65;;;1.10;;
21831;SDS011;11078;49.872;6.188;2022-07-03T08:10:25;2.22;;;0.90;;
21831;SDS011;11078;49.872;6.188;2022-07-03T08:12:50;1.88;;;1.00;;
21831;SDS011;11078;49.872;6.188;2022-07-03T08:15:16;1.30;;;1.00;;
21831;SDS011;11078;49.872;6.188;2022-07-03T08:17:42;0.70;;;0.70;;
21831;SDS011;11078;49.872;6.188;2022-07-03T08:20:08;0.80;;;0.80;;
21831;SDS011;11078;49.872;6.188;2022-07-03T08:22:35;3.30;;;1.00;;
21831;SDS011;11078;49.872;6.188;2022-07-03T08:25:00;0.80;;;0.80;;
21831;SDS011;11078;49.872;6.188;2022-07-03T08:27:26;1.98;;;0.82;;
21831;SDS011;11078;49.872;6.188;2022-07-03T08:29:52;1.15;;;0.73;;
21831;SDS011;11078;49.872;6.188;2022-07-03T08:32:18;0.88;;;0.80;;
21831;SDS011;11078;49.872;6.188;2022-07-03T08:34:44;0.93;;;0.65;;
21831;SDS011;11078;49.872;6.188;2022-07-03T08:37:10;1.63;;;0.73;;
21831;SDS011;11078;49.872;6.188;2022-07-03T08:39:36;0.80;;;0.80;;
21831;SDS011;11078;49.872;6.188;2022-07-03T08:42:02;0.60;;;0.60;;
21831;SDS011;11078;49.872;6.188;2022-07-03T08:44:29;0.50;;;0.50;;
21831;SDS011;11078;49.872;6.188;2022-07-03T08:46:56;1.55;;;0.60;;
21831;SDS011;11078;49.872;6.188;2022-07-03T08:49:24;1.23;;;0.70;;
21831;SDS011;11078;49.872;6.188;2022-07-03T08:51:51;0.60;;;0.60;;
21831;SDS011;11078;49.872;6.188;2022-07-03T08:54:18;0.50;;;0.50;;
21831;SDS011;11078;49.872;6.188;2022-07-03T08:56:44;3.38;;;0.60;;
21831;SDS011;11078;49.872;6.188;2022-07-03T08:59:11;1.38;;;0.50;;
21831;SDS011;11078;49.872;6.188;2022-07-03T09:01:39;0.30;;;0.30;;
21831;SDS011;11078;49.872;6.188;2022-07-03T09:04:09;0.77;;;0.50;;
21831;SDS011;11078;49.872;6.188;2022-07-03T09:06:38;0.82;;;0.68;;
21831;SDS011;11078;49.872;6.188;2022-07-03T09:09:06;0.77;;;0.63;;
21831;SDS011;11078;49.872;6.188;2022-07-03T09:11:33;0.40;;;0.40;;
21831;SDS011;11078;49.872;6.188;2022-07-03T09:14:01;1.77;;;0.45;;
21831;SDS011;11078;49.872;6.188;2022-07-03T09:16:31;2.92;;;0.47;;
21831;SDS011;11078;49.872;6.188;2022-07-03T09:19:01;1.67;;;0.60;;
21831;SDS011;11078;49.872;6.188;2022-07-03T09:24:13;1.25;;;0.65;;
21831;SDS011;11078;49.872;6.188;2022-07-03T09:26:49;0.98;;;0.68;;
21831;SDS011;11078;49.872;6.188;2022-07-03T09:29:17;0.60;;;0.60;;
21831;SDS011;11078;49.872;6.188;2022-07-03T09:31:42;1.58;;;0.60;;
21831;SDS011;11078;49.872;6.188;2022-07-03T09:34:21;2.15;;;0.50;;
21831;SDS011;11078;49.872;6.188;2022-07-03T09:36:49;2.72;;;0.60;;
21831;SDS011;11078;49.872;6.188;2022-07-03T09:39:18;1.92;;;0.60;;
21831;SDS011;11078;49.872;6.188;2022-07-03T09:41:50;1.38;;;0.70;;
21831;SDS011;11078;49.872;6.188;2022-07-03T09:47:15;1.70;;;0.70;;
21831;SDS011;11078;49.872;6.188;2022-07-03T09:52:27;0.80;;;0.50;;
21831;SDS011;11078;49.872;6.188;2022-07-03T09:54:56;0.52;;;0.40;;
21831;SDS011;11078;49.872;6.188;2022-07-03T09:57:23;0.50;;;0.50;;
21831;SDS011;11078;49.872;6.188;2022-07-03T10:00:07;0.85;;;0.60;;
21831;SDS011;11078;49.872;6.188;2022-07-03T10:02:36;1.58;;;0.50;;
21831;SDS011;11078;49.872;6.188;2022-07-03T10:05:18;2.85;;;0.60;;
21831;SDS011;11078;49.872;6.188;2022-07-03T10:07:53;0.63;;;0.50;;
21831;SDS011;11078;49.872;6.188;2022-07-03T10:10:21;2.33;;;0.60;;
21831;SDS011;11078;49.872;6.188;2022-07-03T10:12:49;0.40;;;0.40;;
21831;SDS011;11078;49.872;6.188;2022-07-03T10:15:17;0.50;;;0.50;;
21831;SDS011;11078;49.872;6.188;2022-07-03T10:17:43;0.43;;;0.40;;
21831;SDS011;11078;49.872;6.188;2022-07-03T10:20:14;1.10;;;0.40;;
21831;SDS011;11078;49.872;6.188;2022-07-03T10:22:43;0.45;;;0.40;;
21831;SDS011;11078;49.872;6.188;2022-07-03T10:25:13;1.50;;;0.70;;
21831;SDS011;11078;49.872;6.188;2022-07-03T10:27:40;1.15;;;0.60;;
21831;SDS011;11078;49.872;6.188;2022-07-03T10:30:07;0.73;;;0.45;;
21831;SDS011;11078;49.872;6.188;2022-07-03T10:32:33;0.40;;;0.40;;
21831;SDS011;11078;49.872;6.188;2022-07-03T10:35:02;0.52;;;0.50;;
21831;SDS011;11078;49.872;6.188;2022-07-03T10:37:30;1.40;;;0.40;;
21831;SDS011;11078;49.872;6.188;2022-07-03T10:40:08;1.67;;;0.40;;
21831;SDS011;11078;49.872;6.188;2022-07-03T10:42:56;0.82;;;0.55;;
21831;SDS011;11078;49.872;6.188;2022-07-03T10:51:22;0.40;;;0.40;;
21831;SDS011;11078;49.872;6.188;2022-07-03T10:53:49;3.85;;;0.77;;
21831;SDS011;11078;49.872;6.188;2022-07-03T10:56:15;0.40;;;0.40;;
21831;SDS011;11078;49.872;6.188;2022-07-03T11:01:26;2.50;;;0.60;;
21831;SDS011;11078;49.872;6.188;2022-07-03T11:03:54;0.73;;;0.45;;
21831;SDS011;11078;49.872;6.188;2022-07-03T11:09:24;0.60;;;0.50;;
21831;SDS011;11078;49.872;6.188;2022-07-03T11:11:50;2.00;;;0.60;;
21831;SDS011;11078;49.872;6.188;2022-07-03T11:14:26;1.05;;;0.68;;
21831;SDS011;11078;49.872;6.188;2022-07-03T11:19:44;1.30;;;0.50;;
21831;SDS011;11078;49.872;6.188;2022-07-03T11:22:35;0.82;;;0.38;;
21831;SDS011;11078;49.872;6.188;2022-07-03T11:25:14;0.30;;;0.30;;
21831;SDS011;11078;49.872;6.188;2022-07-03T11:27:42;2.10;;;0.75;;
21831;SDS011;11078;49.872;6.188;2022-07-03T11:30:08;1.60;;;0.43;;
21831;SDS011;11078;49.872;6.188;2022-07-03T11:32:45;1.45;;;0.30;;
21831;SDS011;11078;49.872;6.188;2022-07-03T11:38:13;0.55;;;0.40;;
21831;SDS011;11078;49.872;6.188;2022-07-03T11:40:41;1.00;;;0.60;;
21831;SDS011;11078;49.872;6.188;2022-07-03T11:43:09;0.55;;;0.50;;
21831;SDS011;11078;49.872;6.188;2022-07-03T11:45:37;1.42;;;0.40;;
21831;SDS011;11078;49.872;6.188;2022-07-03T11:48:07;0.73;;;0.70;;
21831;SDS011;11078;49.872;6.188;2022-07-03T11:50:42;1.98;;;0.70;;
21831;SDS011;11078;49.872;6.188;2022-07-03T11:55:55;1.88;;;0.60;;
21831;SDS011;11078;49.872;6.188;2022-07-03T11:58:23;1.10;;;0.55;;
21831;SDS011;11078;49.872;6.188;2022-07-03T12:00:50;0.73;;;0.70;;
21831;SDS011;11078;49.872;6.188;2022-07-03T12:03:25;0.90;;;0.38;;
21831;SDS011;11078;49.872;6.188;2022-07-03T12:05:53;0.63;;;0.60;;
21831;SDS011;11078;49.872;6.188;2022-07-03T12:08:21;2.20;;;0.52;;
21831;SDS011;11078;49.872;6.188;2022-07-03T12:10:49;1.55;;;0.50;;
21831;SDS011;11078;49.872;6.188;2022-07-03T12:13:19;1.40;;;0.60;;
21831;SDS011;11078;49.872;6.188;2022-07-03T12:15:46;0.38;;;0.38;;
21831;SDS011;11078;49.872;6.188;2022-07-03T12:18:13;0.75;;;0.60;;
21831;SDS011;11078;49.872;6.188;2022-07-03T12:20:40;1.98;;;0.80;;
21831;SDS011;11078;49.872;6.188;2022-07-03T12:23:06;1.45;;;0.70;;
21831;SDS011;11078;49.872;6.188;2022-07-03T12:25:37;0.50;;;0.50;;
21831;SDS011;11078;49.872;6.188;2022-07-03T12:28:07;0.63;;;0.50;;
21831;SDS011;11078;49.872;6.188;2022-07-03T12:30:35;0.57;;;0.43;;
21831;SDS011;11078;49.872;6.188;2022-07-03T12:33:02;1.92;;;0.60;;
21831;SDS011;11078;49.872;6.188;2022-07-03T12:35:29;1.50;;;0.65;;
21831;SDS011;11078;49.872;6.188;2022-07-03T12:37:55;1.77;;;0.35;;
21831;SDS011;11078;49.872;6.188;2022-07-03T12:40:22;0.65;;;0.47;;
21831;SDS011;11078;49.872;6.188;2022-07-03T12:42:50;3.75;;;0.60;;
21831;SDS011;11078;49.872;6.188;2022-07-03T12:45:18;0.45;;;0.45;;
21831;SDS011;11078;49.872;6.188;2022-07-03T12:53:25;1.33;;;0.55;;
21831;SDS011;11078;49.872;6.188;2022-07-03T12:55:52;0.40;;;0.40;;
21831;SDS011;11078;49.872;6.188;2022-07-03T12:58:22;0.50;;;0.50;;
21831;SDS011;11078;49.872;6.188;2022-07-03T13:01:03;0.73;;;0.45;;
21831;SDS011;11078;49.872;6.188;2022-07-03T13:03:30;0.40;;;0.40;;
21831;SDS011;11078;49.872;6.188;2022-07-03T13:06:00;0.63;;;0.50;;
21831;SDS011;11078;49.872;6.188;2022-07-03T13:08:26;1.20;;;0.65;;
21831;SDS011;11078;49.872;6.188;2022-07-03T13:10:56;1.23;;;0.50;;
21831;SDS011;11078;49.872;6.188;2022-07-03T13:13:22;1.88;;;0.52;;
21831;SDS011;11078;49.872;6.188;2022-07-03T13:15:48;2.45;;;0.50;;
21831;SDS011;11078;49.872;6.188;2022-07-03T13:18:14;1.65;;;0.57;;
21831;SDS011;11078;49.872;6.188;2022-07-03T13:20:40;1.80;;;0.50;;
21831;SDS011;11078;49.872;6.188;2022-07-03T13:23:06;1.77;;;0.50;;
21831;SDS011;11078;49.872;6.188;2022-07-03T13:25:33;1.15;;;0.47;;
21831;SDS011;11078;49.872;6.188;2022-07-03T13:28:05;1.15;;;0.60;;
21831;SDS011;11078;49.872;6.188;2022-07-03T13:30:32;3.10;;;0.50;;
21831;SDS011;11078;49.872;6.188;2022-07-03T13:33:00;0.60;;;0.60;;
21831;SDS011;11078;49.872;6.188;2022-07-03T13:35:27;0.80;;;0.40;;
21831;SDS011;11078;49.872;6.188;2022-07-03T13:37:53;2.10;;;1.40;;
21831;SDS011;11078;49.872;6.188;2022-07-03T13:40:20;1.08;;;0.45;;
21831;SDS011;11078;49.872;6.188;2022-07-03T13:42:46;1.05;;;0.80;;
21831;SDS011;11078;49.872;6.188;2022-07-03T13:45:13;1.98;;;0.75;;
21831;SDS011;11078;49.872;6.188;2022-07-03T13:47:40;0.55;;;0.40;;
21831;SDS011;11078;49.872;6.188;2022-07-03T13:50:07;1.42;;;0.50;;
21831;SDS011;11078;49.872;6.188;2022-07-03T13:52:33;1.08;;;0.60;;
21831;SDS011;11078;49.872;6.188;2022-07-03T13:54:59;2.05;;;0.65;;
21831;SDS011;11078;49.872;6.188;2022-07-03T13:57:25;0.45;;;0.45;;
21831;SDS011;11078;49.872;6.188;2022-07-03T13:59:52;0.98;;;0.60;;
21831;SDS011;11078;49.872;6.188;2022-07-03T14:02:18;1.40;;;0.50;;
21831;SDS011;11078;49.872;6.188;2022-07-03T14:04:44;0.93;;;0.47;;
21831;SDS011;11078;49.872;6.188;2022-07-03T14:07:10;1.65;;;0.60;;
21831;SDS011;11078;49.872;6.188;2022-07-03T14:09:36;2.05;;;0.50;;
21831;SDS011;11078;49.872;6.188;2022-07-03T14:12:02;2.72;;;0.55;;
21831;SDS011;11078;49.872;6.188;2022-07-03T14:14:28;2.00;;;0.50;;
21831;SDS011;11078;49.872;6.188;2022-07-03T14:16:54;3.17;;;0.45;;
21831;SDS011;11078;49.872;6.188;2022-07-03T14:19:21;0.70;;;0.50;;
21831;SDS011;11078;49.872;6.188;2022-07-03T14:21:47;0.38;;;0.38;;
21831;SDS011;11078;49.872;6.188;2022-07-03T14:24:13;3.10;;;0.50;;
21831;SDS011;11078;49.872;6.188;2022-07-03T14:26:40;0.65;;;0.50;;
21831;SDS011;11078;49.872;6.188;2022-07-03T14:29:21;0.70;;;0.60;;
21831;SDS011;11078;49.872;6.188;2022-07-03T14:32:03;1.42;;;0.60;;
21831;SDS011;11078;49.872;6.188;2022-07-03T14:34:45;1.27;;;0.50;;
21831;SDS011;11078;49.872;6.188;2022-07-03T14:37:12;2.80;;;0.70;;
21831;SDS011;11078;49.872;6.188;2022-07-03T14:39:41;2.90;;;0.50;;
21831;SDS011;11078;49.872;6.188;2022-07-03T14:42:07;1.15;;;0.50;;
21831;SDS011;11078;49.872;6.188;2022-07-03T14:44:33;2.75;;;0.52;;
21831;SDS011;11078;49.872;6.188;2022-07-03T14:46:59;1.85;;;0.60;;
21831;SDS011;11078;49.872;6.188;2022-07-03T14:49:25;1.52;;;0.50;;
21831;SDS011;11078;49.872;6.188;2022-07-03T14:51:51;1.20;;;0.60;;
21831;SDS011;11078;49.872;6.188;2022-07-03T14:54:18;0.47;;;0.47;;
21831;SDS011;11078;49.872;6.188;2022-07-03T14:56:53;0.55;;;0.50;;
21831;SDS011;11078;49.872;6.188;2022-07-03T14:59:27;0.50;;;0.50;;
21831;SDS011;11078;49.872;6.188;2022-07-03T15:02:10;1.35;;;0.50;;
21831;SDS011;11078;49.872;6.188;2022-07-03T15:04:54;1.02;;;0.52;;
21831;SDS011;11078;49.872;6.188;2022-07-03T15:07:34;1.80;;;0.50;;
21831;SDS011;11078;49.872;6.188;2022-07-03T15:10:06;0.50;;;0.50;;
21831;SDS011;11078;49.872;6.188;2022-07-03T15:12:37;5.90;;;0.80;;
21831;SDS011;11078;49.872;6.188;2022-07-03T15:15:14;16.60;;;1.15;;
21831;SDS011;11078;49.872;6.188;2022-07-03T15:17:41;5.18;;;0.50;;
21831;SDS011;11078;49.872;6.188;2022-07-03T15:20:08;0.60;;;0.60;;
21831;SDS011;11078;49.872;6.188;2022-07-03T15:22:39;0.75;;;0.50;;
21831;SDS011;11078;49.872;6.188;2022-07-03T15:25:08;1.10;;;0.60;;
21831;SDS011;11078;49.872;6.188;2022-07-03T15:27:35;1.63;;;0.70;;
21831;SDS011;11078;49.872;6.188;2022-07-03T15:30:02;0.50;;;0.50;;
21831;SDS011;11078;49.872;6.188;2022-07-03T15:32:29;2.40;;;0.68;;
21831;SDS011;11078;49.872;6.188;2022-07-03T15:34:55;1.50;;;0.70;;
21831;SDS011;11078;49.872;6.188;2022-07-03T15:40:31;1.63;;;0.80;;
21831;SDS011;11078;49.872;6.188;2022-07-03T15:43:21;1.25;;;0.60;;
21831;SDS011;11078;49.872;6.188;2022-07-03T15:49:09;0.70;;;0.70;;
21831;SDS011;11078;49.872;6.188;2022-07-03T15:51:55;1.80;;;0.70;;
21831;SDS011;11078;49.872;6.188;2022-07-03T15:54:40;2.28;;;0.93;;
21831;SDS011;11078;49.872;6.188;2022-07-03T16:00:13;1.02;;;0.77;;
21831;SDS011;11078;49.872;6.188;2022-07-03T16:02:48;1.20;;;0.90;;